Time;durP1;ratioP1;P1;durP2;ratioP2;P2;SDS_P1;SDS_P2;PMS_P1;PMS_P2;Temp;Humidity;BMP_temperature;BMP_pressure;BME280_temperature;BME280_humidity;BME280_pressure;Samples;Min_cycle;Max_cycle;Signal;HPM_P1;HPM_P2
2024/01/10 00:00:38;;;;;;;4.53;4.33;;;;;;;-4.68;66.94;99570.41;4136387;28;20618;-53
2024/01/10 00:02:40;;;;;;;6.07;5.67;;;;;;;-4.66;66.54;99569.28;4137569;28;20724;-52
2024/01/10 00:04:42;;;;;;;6.63;3.83;;;;;;;-4.69;66.35;99568.69;4143190;28;20582;-54
2024/01/10 00:06:44;;;;;;;6.10;5.70;;;;;;;-4.66;66.92;99563.09;4134234;28;20206;-52
2024/01/10 00:08:46;;;;;;;4.97;4.73;;;;;;;-4.73;66.94;99561.94;4134286;28;20205;-53
2024/01/10 00:10:48;;;;;;;5.13;4.70;;;;;;;-4.70;67.08;99570.53;4143147;28;20226;-54
2024/01/10 00:12:49;;;;;;;5.33;4.93;;;;;;;-4.56;67.28;99569.34;4137950;28;20209;-53
2024/01/10 00:14:51;;;;;;;4.80;4.50;;;;;;;-4.60;66.90;99563.41;4133266;28;20222;-52
2024/01/10 00:16:53;;;;;;;4.40;4.10;;;;;;;-4.68;67.20;99565.06;4141513;28;20212;-53
2024/01/10 00:18:55;;;;;;;4.87;4.60;;;;;;;-4.59;67.33;99564.28;4133823;28;20206;-53
2024/01/10 00:20:56;;;;;;;5.87;5.43;;;;;;;-4.68;68.07;99559.72;4142156;28;20255;-52
2024/01/10 00:22:58;;;;;;;6.30;5.07;;;;;;;-4.78;68.45;99553.47;4137579;28;20795;-54
2024/01/10 00:25:00;;;;;;;4.73;4.50;;;;;;;-4.78;68.83;99548.13;4141018;28;20213;-53
2024/01/10 00:27:02;;;;;;;7.70;4.80;;;;;;;-4.80;68.58;99555.41;4136741;28;20742;-55
2024/01/10 00:29:04;;;;;;;9.37;4.90;;;;;;;-4.79;68.78;99541.09;4139475;28;20722;-55
2024/01/10 00:31:06;;;;;;;6.83;6.43;;;;;;;-4.72;69.51;99552.94;4139561;28;20237;-52
2024/01/10 00:33:07;;;;;;;5.40;5.10;;;;;;;-4.77;69.43;99544.47;4139797;28;20709;-53
2024/01/10 00:35:11;;;;;;;7.20;5.47;;;;;;;-4.87;68.92;99554.25;4138003;28;20217;-54
2024/01/10 00:37:13;;;;;;;7.23;6.63;;;;;;;-5.12;68.72;99544.78;4135990;28;20218;-54
2024/01/10 00:39:15;;;;;;;6.70;6.20;;;;;;;-4.96;69.53;99549.66;4144360;28;20224;-55
2024/01/10 00:41:17;;;;;;;5.20;4.90;;;;;;;-4.88;69.27;99553.38;4145464;28;20233;-54
2024/01/10 00:43:19;;;;;;;5.53;5.17;;;;;;;-4.83;69.28;99547.66;4141505;28;20252;-54
2024/01/10 00:45:21;;;;;;;3.80;3.70;;;;;;;-4.85;69.20;99544.28;4144352;28;20633;-55
2024/01/10 00:47:22;;;;;;;7.10;6.50;;;;;;;-4.78;69.13;99548.13;4136475;28;20741;-54
2024/01/10 00:49:24;;;;;;;4.03;3.83;;;;;;;-4.89;69.46;99545.50;4141370;28;20679;-52
2024/01/10 00:51:26;;;;;;;5.17;4.87;;;;;;;-4.87;70.02;99538.22;4140793;28;20757;-52
2024/01/10 00:53:27;;;;;;;4.73;4.27;;;;;;;-4.90;69.79;99541.13;4140071;28;20228;-54
2024/01/10 00:55:29;;;;;;;6.60;6.03;;;;;;;-4.88;69.64;99541.88;4145767;28;20307;-52
2024/01/10 00:57:31;;;;;;;4.60;4.30;;;;;;;-4.94;69.75;99537.06;4136723;28;20217;-52
2024/01/10 00:59:32;;;;;;;6.07;5.73;;;;;;;-4.91;70.13;99537.66;4134428;28;20358;-53
2024/01/10 01:01:34;;;;;;;5.60;5.23;;;;;;;-5.03;69.82;99530.66;4141562;28;20233;-53
2024/01/10 01:03:36;;;;;;;5.20;4.87;;;;;;;-5.00;70.08;99532.22;4137404;28;20652;-55
2024/01/10 01:05:38;;;;;;;7.30;6.80;;;;;;;-5.00;70.48;99524.22;4138338;28;20292;-55
2024/01/10 01:07:40;;;;;;;6.50;6.03;;;;;;;-5.01;71.04;99527.88;4138887;28;20244;-56
2024/01/10 01:09:42;;;;;;;6.63;6.00;;;;;;;-4.96;70.36;99518.50;4135629;28;20213;-55
2024/01/10 01:11:43;;;;;;;5.93;5.43;;;;;;;-5.29;70.65;99519.63;4136254;28;20713;-53
2024/01/10 01:13:45;;;;;;;5.87;5.40;;;;;;;-5.18;71.18;99517.75;4146561;28;20209;-54
2024/01/10 01:15:47;;;;;;;5.93;5.53;;;;;;;-5.15;71.56;99517.47;4121722;28;20244;-53
2024/01/10 01:17:49;;;;;;;10.13;8.83;;;;;;;-5.09;72.12;99516.97;4138393;28;20206;-54
2024/01/10 01:19:50;;;;;;;5.63;5.23;;;;;;;-5.04;72.04;99517.44;4139470;28;20205;-55
2024/01/10 01:21:52;;;;;;;6.67;5.90;;;;;;;-5.04;72.39;99517.44;4136333;28;20233;-54
2024/01/10 01:23:54;;;;;;;6.67;6.37;;;;;;;-4.99;72.85;99512.56;4137964;28;20205;-52
2024/01/10 01:25:56;;;;;;;5.10;4.70;;;;;;;-5.01;72.92;99514.53;4134131;28;20566;-52
2024/01/10 01:27:58;;;;;;;4.77;4.47;;;;;;;-4.93;73.12;99518.22;4138250;28;20300;-55
2024/01/10 01:29:59;;;;;;;5.93;5.53;;;;;;;-4.96;72.82;99517.63;4128812;28;20218;-53
2024/01/10 01:32:01;;;;;;;5.10;4.20;;;;;;;-4.97;73.30;99515.94;4122601;28;20231;-55
2024/01/10 01:34:03;;;;;;;4.67;4.27;;;;;;;-4.90;73.72;99512.66;4137214;28;20218;-56
2024/01/10 01:36:06;;;;;;;3.77;3.53;;;;;;;-5.10;73.12;99515.28;4136863;28;20214;-53
2024/01/10 01:38:08;;;;;;;7.30;6.70;;;;;;;-5.03;72.93;99511.13;4137296;28;20228;-52
2024/01/10 01:40:10;;;;;;;8.60;5.47;;;;;;;-4.98;73.38;99519.59;4137597;28;20209;-53
2024/01/10 01:42:11;;;;;;;7.83;4.50;;;;;;;-4.89;73.26;99518.81;4138832;28;20385;-56
2024/01/10 01:44:13;;;;;;;6.50;5.97;;;;;;;-4.91;73.34;99510.97;4139552;28;20209;-53
2024/01/10 01:46:15;;;;;;;5.00;4.47;;;;;;;-4.92;73.30;99508.41;4144950;28;20275;-52
2024/01/10 01:48:17;;;;;;;7.07;6.43;;;;;;;-4.83;73.90;99508.47;4139266;28;20220;-54
2024/01/10 01:50:19;;;;;;;6.43;6.10;;;;;;;-4.86;73.62;99514.06;4139088;28;20217;-54
2024/01/10 01:52:21;;;;;;;6.63;6.13;;;;;;;-4.90;71.94;99518.00;4140645;28;20212;-54
2024/01/10 01:54:23;;;;;;;4.17;3.87;;;;;;;-4.94;71.73;99513.88;4138538;28;20216;-53
2024/01/10 01:56:25;;;;;;;6.37;5.77;;;;;;;-4.94;72.33;99516.53;4136746;28;20225;-52
2024/01/10 01:58:27;;;;;;;6.40;6.00;;;;;;;-4.81;72.54;99517.19;4132943;28;20214;-54
2024/01/10 02:00:30;;;;;;;6.43;5.30;;;;;;;-4.89;71.48;99513.47;4133568;28;20218;-54
2024/01/10 02:02:32;;;;;;;5.37;5.07;;;;;;;-4.72;72.05;99512.91;4146838;28;20228;-56
2024/01/10 02:04:34;;;;;;;6.90;6.50;;;;;;;-4.78;72.10;99510.75;4142939;28;21466;-53
2024/01/10 02:06:36;;;;;;;5.03;4.77;;;;;;;-4.66;71.77;99509.72;4127702;28;20296;-52
2024/01/10 02:08:38;;;;;;;8.13;7.13;;;;;;;-4.77;72.31;99517.78;4137322;28;20210;-53
2024/01/10 02:10:40;;;;;;;6.87;6.47;;;;;;;-4.71;72.34;99511.94;4138546;28;20229;-54
2024/01/10 02:12:42;;;;;;;6.93;5.97;;;;;;;-4.73;71.54;99511.22;4126387;28;20213;-56
2024/01/10 02:14:43;;;;;;;8.70;7.10;;;;;;;-4.68;70.81;99511.69;4136331;28;20245;-53
2024/01/10 02:16:45;;;;;;;5.23;4.73;;;;;;;-4.70;71.30;99513.63;4136617;28;20209;-53
2024/01/10 02:18:47;;;;;;;6.67;6.17;;;;;;;-4.59;71.15;99508.22;4143329;28;20245;-52
2024/01/10 02:20:49;;;;;;;9.03;6.97;;;;;;;-4.86;71.58;99505.22;4134851;28;20230;-53
2024/01/10 02:22:51;;;;;;;3.87;3.73;;;;;;;-4.70;71.99;99498.47;4137304;28;20228;-55
2024/01/10 02:24:54;;;;;;;6.77;6.37;;;;;;;-5.05;70.75;99497.09;4134449;28;20313;-53
2024/01/10 02:26:56;;;;;;;6.50;6.00;;;;;;;-4.97;70.42;99500.81;4135040;28;20295;-53
2024/01/10 02:28:58;;;;;;;6.90;6.30;;;;;;;-4.96;70.90;99490.97;4136826;28;20205;-55
2024/01/10 02:31:00;;;;;;;6.97;6.43;;;;;;;-4.93;71.64;99486.22;4138221;28;20225;-54
2024/01/10 02:33:02;;;;;;;6.20;5.70;;;;;;;-4.83;71.82;99481.81;4144608;28;20212;-53
2024/01/10 02:35:04;;;;;;;5.17;4.83;;;;;;;-4.91;70.44;99472.75;4139770;28;20906;-53
2024/01/10 02:37:06;;;;;;;6.27;5.00;;;;;;;-4.92;70.95;99481.72;4138321;28;20209;-53
2024/01/10 02:39:07;;;;;;;8.10;7.10;;;;;;;-5.02;70.48;99475.47;4137463;28;20217;-53
2024/01/10 02:41:09;;;;;;;4.97;4.63;;;;;;;-5.05;70.95;99467.75;4139672;28;20238;-52
2024/01/10 02:43:11;;;;;;;8.27;7.67;;;;;;;-5.05;70.50;99462.41;4143664;28;20653;-52
2024/01/10 02:45:13;;;;;;;5.30;4.80;;;;;;;-4.92;70.35;99465.72;4137575;28;20304;-51
2024/01/10 02:47:14;;;;;;;5.37;4.87;;;;;;;-4.87;71.15;99458.19;4136669;28;20213;-52
2024/01/10 02:49:18;;;;;;;8.40;7.70;;;;;;;-4.73;70.92;99461.34;4135693;28;20218;-52
2024/01/10 02:51:20;;;;;;;7.07;6.07;;;;;;;-4.77;71.40;99456.41;4138327;28;20237;-52
2024/01/10 02:53:21;;;;;;;6.33;5.90;;;;;;;-4.70;71.54;99452.22;4134203;28;20209;-53
2024/01/10 02:55:23;;;;;;;6.73;6.33;;;;;;;-4.60;71.16;99455.81;4136144;28;20734;-52
2024/01/10 02:57:25;;;;;;;4.77;4.47;;;;;;;-4.65;71.18;99450.88;4139420;28;20213;-52
2024/01/10 02:59:27;;;;;;;6.20;5.70;;;;;;;-4.65;71.11;99461.56;4138541;28;20217;-52
2024/01/10 03:01:28;;;;;;;7.40;6.53;;;;;;;-4.48;71.06;99455.59;4151477;28;20236;-51
2024/01/10 03:03:30;;;;;;;6.80;6.13;;;;;;;-4.55;70.98;99458.91;4135495;28;20209;-51
2024/01/10 03:05:32;;;;;;;7.33;4.63;;;;;;;-4.54;70.98;99456.13;4142905;28;20217;-51
2024/01/10 03:07:34;;;;;;;4.73;4.13;;;;;;;-4.54;71.42;99449.94;4142381;28;20216;-51
2024/01/10 03:09:35;;;;;;;5.90;4.80;;;;;;;-4.30;70.54;99453.13;4143350;28;20213;-52
2024/01/10 03:11:37;;;;;;;6.20;5.67;;;;;;;-4.50;69.50;99457.56;4150753;28;20233;-52
2024/01/10 03:13:39;;;;;;;6.20;5.57;;;;;;;-4.38;69.98;99451.16;4137813;28;20228;-52
2024/01/10 03:15:41;;;;;;;5.93;5.13;;;;;;;-4.51;69.51;99461.19;4139201;28;20264;-52
2024/01/10 03:17:43;;;;;;;4.83;4.43;;;;;;;-4.45;68.99;99459.81;4137608;28;20218;-52
2024/01/10 03:19:44;;;;;;;5.33;4.80;;;;;;;-4.47;68.96;99461.78;4137441;28;20229;-52
2024/01/10 03:21:46;;;;;;;5.13;4.73;;;;;;;-4.36;69.06;99464.34;4135471;28;20328;-52
2024/01/10 03:23:48;;;;;;;7.13;6.47;;;;;;;-4.32;69.29;99471.97;4143722;28;20257;-52
2024/01/10 03:25:50;;;;;;;5.07;4.67;;;;;;;-4.45;68.21;99465.16;4132888;28;20210;-52
2024/01/10 03:27:52;;;;;;;5.37;5.07;;;;;;;-4.52;68.42;99470.19;4142767;28;20368;-51
2024/01/10 03:29:53;;;;;;;6.73;6.03;;;;;;;-4.40;68.48;99465.59;4135620;28;20260;-52
2024/01/10 03:31:55;;;;;;;5.90;5.47;;;;;;;-4.49;68.74;99463.72;4139854;28;20567;-52
2024/01/10 03:33:58;;;;;;;6.30;5.70;;;;;;;-4.59;67.76;99466.34;4135350;28;20578;-51
2024/01/10 03:36:00;;;;;;;7.70;7.20;;;;;;;-4.48;68.69;99465.44;4134180;28;20228;-52
2024/01/10 03:38:01;;;;;;;7.73;6.33;;;;;;;-4.52;68.77;99464.84;4137476;28;20297;-53
2024/01/10 03:40:03;;;;;;;8.13;6.83;;;;;;;-4.46;69.09;99468.81;4149119;28;20256;-51
2024/01/10 03:42:05;;;;;;;6.47;5.87;;;;;;;-4.35;68.86;99466.06;4136721;28;20300;-52
2024/01/10 03:44:07;;;;;;;4.80;4.50;;;;;;;-4.44;68.55;99472.19;4138025;28;20206;-52
2024/01/10 03:46:12;;;;;;;5.87;5.43;;;;;;;-4.31;67.77;99467.47;4137367;28;20288;-52
2024/01/10 03:48:14;;;;;;;6.53;4.47;;;;;;;-4.45;68.43;99462.50;4145477;28;20300;-52
2024/01/10 03:50:17;;;;;;;5.33;5.03;;;;;;;-4.44;68.72;99464.16;4135276;28;20213;-52
2024/01/10 03:52:19;;;;;;;4.10;3.80;;;;;;;-4.35;69.14;99466.06;4135250;28;20214;-53
2024/01/10 03:54:21;;;;;;;5.53;5.03;;;;;;;-4.42;68.38;99465.72;4143377;28;20311;-52
2024/01/10 03:56:23;;;;;;;5.53;5.17;;;;;;;-4.30;69.18;99461.13;4144015;28;20229;-52
2024/01/10 03:58:25;;;;;;;9.47;5.37;;;;;;;-4.38;69.12;99467.16;4139178;28;20667;-52
2024/01/10 04:00:26;;;;;;;9.73;5.83;;;;;;;-4.40;69.40;99462.94;4135578;28;20642;-52
2024/01/10 04:02:28;;;;;;;6.17;5.60;;;;;;;-4.37;69.73;99468.00;4153973;28;20624;-53
2024/01/10 04:04:30;;;;;;;6.80;6.33;;;;;;;-4.37;70.06;99473.34;4135831;28;20305;-52
2024/01/10 04:06:32;;;;;;;12.33;6.03;;;;;;;-4.37;71.01;99473.34;4143657;28;20221;-52
2024/01/10 04:08:33;;;;;;;5.60;5.30;;;;;;;-4.39;71.65;99469.97;4136378;28;20393;-52
2024/01/10 04:10:35;;;;;;;4.97;4.10;;;;;;;-4.43;71.92;99477.41;4138343;28;20761;-53
2024/01/10 04:12:37;;;;;;;13.13;6.30;;;;;;;-4.35;71.62;99472.22;4138089;28;20716;-52
2024/01/10 04:14:42;;;;;;;8.83;5.17;;;;;;;-4.34;71.38;99476.59;4140895;28;20670;-51
2024/01/10 04:16:43;;;;;;;7.80;5.73;;;;;;;-4.50;70.24;99475.38;4152189;28;20259;-52
2024/01/10 04:18:45;;;;;;;7.73;7.30;;;;;;;-4.51;70.21;99481.69;4134863;28;20210;-52
2024/01/10 04:20:49;;;;;;;6.60;4.83;;;;;;;-4.40;70.00;99484.31;4153013;28;20589;-52
2024/01/10 04:22:50;;;;;;;5.10;4.47;;;;;;;-4.47;69.93;99488.47;4139955;28;20481;-52
2024/01/10 04:24:52;;;;;;;5.27;4.87;;;;;;;-4.54;69.55;99484.66;4135645;28;20218;-52
2024/01/10 04:26:54;;;;;;;7.37;6.50;;;;;;;-4.55;69.41;99485.59;4139734;28;20204;-51
2024/01/10 04:28:55;;;;;;;4.10;3.90;;;;;;;-4.67;70.09;99487.50;4140551;28;20675;-51
2024/01/10 04:30:57;;;;;;;7.03;6.03;;;;;;;-4.47;70.54;99483.97;4145731;28;20257;-51
2024/01/10 04:32:59;;;;;;;6.03;5.47;;;;;;;-4.74;69.21;99486.34;4138483;28;20679;-52
2024/01/10 04:35:01;;;;;;;6.17;5.63;;;;;;;-4.71;70.05;99490.56;4138422;28;20224;-51
2024/01/10 04:37:03;;;;;;;7.00;6.50;;;;;;;-4.90;69.60;99485.97;4137325;28;20304;-52
2024/01/10 04:39:05;;;;;;;7.87;6.20;;;;;;;-4.85;69.98;99477.56;4146878;28;20267;-51
2024/01/10 04:41:07;;;;;;;5.90;5.60;;;;;;;-4.82;70.10;99479.97;4137589;28;20256;-51
2024/01/10 04:43:08;;;;;;;6.80;6.33;;;;;;;-4.96;70.21;99481.16;4146466;28;20264;-52
2024/01/10 04:45:10;;;;;;;5.73;5.23;;;;;;;-4.89;70.08;99486.78;4136591;28;20213;-51
2024/01/10 04:47:12;;;;;;;6.03;5.53;;;;;;;-4.91;70.48;99480.75;4138475;28;20273;-52
2024/01/10 04:49:14;;;;;;;7.17;6.50;;;;;;;-4.87;70.21;99479.53;4145448;28;20279;-52
2024/01/10 04:51:15;;;;;;;5.93;4.97;;;;;;;-4.90;70.69;99480.63;4142466;28;20237;-52
2024/01/10 04:53:17;;;;;;;5.93;5.63;;;;;;;-4.79;70.60;99472.53;4153143;28;20197;-51
2024/01/10 04:55:19;;;;;;;7.23;6.83;;;;;;;-4.89;71.18;99471.66;4139982;28;20271;-52
2024/01/10 04:57:20;;;;;;;6.00;5.50;;;;;;;-4.95;70.95;99472.16;4136983;28;20337;-53
2024/01/10 04:59:22;;;;;;;9.03;6.33;;;;;;;-4.97;71.25;99473.25;4138094;28;20272;-52
2024/01/10 05:01:24;;;;;;;4.87;4.60;;;;;;;-4.99;71.82;99475.22;4141828;28;20243;-52
2024/01/10 05:03:26;;;;;;;5.97;5.53;;;;;;;-5.07;71.57;99473.19;4143371;28;20225;-52
2024/01/10 05:05:28;;;;;;;7.13;4.73;;;;;;;-5.01;71.77;99463.84;4139323;28;20288;-53
2024/01/10 05:07:30;;;;;;;8.13;6.53;;;;;;;-5.05;72.27;99462.41;4122566;28;20297;-53
2024/01/10 05:09:31;;;;;;;6.83;6.40;;;;;;;-5.13;71.54;99457.69;4144260;28;20213;-51
2024/01/10 05:11:35;;;;;;;7.53;6.57;;;;;;;-5.19;71.99;99457.38;4140509;28;20300;-53
2024/01/10 05:13:37;;;;;;;6.83;6.33;;;;;;;-5.13;72.52;99457.69;4126013;28;20202;-52
2024/01/10 05:15:39;;;;;;;9.07;8.47;;;;;;;-5.03;72.42;99457.78;4143514;28;20297;-52
2024/01/10 05:17:40;;;;;;;6.97;6.37;;;;;;;-4.96;71.94;99469.63;4138182;28;20212;-52
2024/01/10 05:19:42;;;;;;;4.63;4.33;;;;;;;-5.01;72.54;99467.34;4140108;28;20333;-52
2024/01/10 05:21:44;;;;;;;7.80;7.00;;;;;;;-4.99;72.49;99459.22;4138461;28;20755;-52
2024/01/10 05:23:46;;;;;;;10.03;5.60;;;;;;;-5.02;72.35;99460.31;4136594;28;20358;-52
2024/01/10 05:25:48;;;;;;;6.93;6.27;;;;;;;-4.92;71.95;99460.38;4141284;28;20212;-52
2024/01/10 05:27:50;;;;;;;6.03;5.70;;;;;;;-4.99;72.39;99456.56;4126878;28;20217;-52
2024/01/10 05:29:51;;;;;;;12.20;6.63;;;;;;;-4.83;72.09;99464.94;4139553;28;20206;-51
2024/01/10 05:31:53;;;;;;;5.93;5.13;;;;;;;-4.84;72.53;99463.25;4145228;28;20650;-52
2024/01/10 05:33:55;;;;;;;6.57;6.17;;;;;;;-5.03;72.81;99463.13;4144492;28;20198;-52
2024/01/10 05:35:58;;;;;;;14.97;6.57;;;;;;;-4.95;72.66;99465.97;4139252;28;20228;-52
2024/01/10 05:37:59;;;;;;;7.43;6.83;;;;;;;-5.02;72.71;99459.47;4137983;28;20569;-52
2024/01/10 05:40:01;;;;;;;5.97;5.57;;;;;;;-5.17;73.12;99455.44;4138126;28;20238;-52
2024/01/10 05:42:05;;;;;;;6.40;6.10;;;;;;;-5.15;73.66;99448.13;4134981;28;20222;-52
2024/01/10 05:44:06;;;;;;;5.83;5.23;;;;;;;-5.18;73.49;99448.41;4135747;28;20233;-52
2024/01/10 05:46:09;;;;;;;5.60;5.30;;;;;;;-5.02;73.53;99459.47;4138693;28;20201;-53
2024/01/10 05:48:11;;;;;;;10.03;5.17;;;;;;;-5.09;73.69;99453.81;4125416;28;20229;-53
2024/01/10 05:50:13;;;;;;;9.53;5.63;;;;;;;-4.87;73.71;99460.84;4110949;28;20217;-52
2024/01/10 05:52:15;;;;;;;16.87;7.97;;;;;;;-4.84;73.65;99468.59;4120600;28;20238;-53
2024/01/10 05:54:18;;;;;;;9.00;8.30;;;;;;;-4.86;73.12;99471.38;4124987;28;20218;-52
2024/01/10 05:56:19;;;;;;;6.63;6.13;;;;;;;-4.81;72.52;99468.34;4117567;28;20221;-53
2024/01/10 05:58:21;;;;;;;15.03;5.90;;;;;;;-4.88;72.52;99464.50;4121788;28;20694;-53
2024/01/10 06:00:23;;;;;;;5.53;5.03;;;;;;;-4.86;72.54;99465.22;4127350;28;20248;-53
2024/01/10 06:02:25;;;;;;;9.17;7.87;;;;;;;-4.87;72.71;99474.19;4122278;28;20214;-53
2024/01/10 06:04:28;;;;;;;5.87;5.47;;;;;;;-4.86;72.43;99471.38;4120432;28;20695;-52
2024/01/10 06:06:30;;;;;;;8.20;7.70;;;;;;;-4.89;72.78;99473.47;4118212;28;20241;-53
2024/01/10 06:08:32;;;;;;;8.50;6.17;;;;;;;-4.88;73.03;99467.16;4126713;28;20206;-53
2024/01/10 06:10:34;;;;;;;4.60;4.30;;;;;;;-4.80;73.26;99465.50;4133834;28;20275;-53
2024/01/10 06:12:38;;;;;;;7.03;6.47;;;;;;;-4.85;73.45;99469.56;4118488;28;20271;-52
2024/01/10 06:14:40;;;;;;;8.50;7.80;;;;;;;-4.75;73.54;99467.78;4119651;28;20217;-54
2024/01/10 06:16:44;;;;;;;7.33;6.83;;;;;;;-4.81;73.13;99473.69;4118737;28;20216;-53
2024/01/10 06:18:46;;;;;;;11.80;5.40;;;;;;;-4.72;73.28;99480.88;4126917;28;20774;-52
2024/01/10 06:20:48;;;;;;;9.93;8.40;;;;;;;-4.85;73.34;99472.22;4121120;28;20236;-54
2024/01/10 06:22:50;;;;;;;9.33;7.37;;;;;;;-4.81;74.11;99479.00;4125591;28;20234;-52
2024/01/10 06:24:52;;;;;;;5.73;5.33;;;;;;;-4.76;74.10;99477.63;4124570;28;20279;-53
2024/01/10 06:26:54;;;;;;;8.47;7.20;;;;;;;-4.71;74.24;99475.44;4126755;28;20257;-53
2024/01/10 06:28:55;;;;;;;11.67;6.80;;;;;;;-4.69;73.72;99467.25;4126812;28;20216;-53
2024/01/10 06:30:57;;;;;;;17.80;8.47;;;;;;;-4.71;73.77;99478.09;4123614;28;20356;-52
2024/01/10 06:32:59;;;;;;;5.80;5.47;;;;;;;-4.73;74.47;99471.19;4120521;28;20286;-52
2024/01/10 06:35:01;;;;;;;8.23;7.57;;;;;;;-4.74;73.52;99473.00;4124198;28;20216;-53
2024/01/10 06:37:03;;;;;;;11.57;6.67;;;;;;;-4.96;73.99;99474.94;4120742;28;20218;-53
2024/01/10 06:39:05;;;;;;;5.97;5.40;;;;;;;-4.90;74.13;99485.09;4116644;28;20211;-53
2024/01/10 06:41:13;;;;;;;8.33;7.60;;;;;;;-4.78;74.27;99470.72;4122613;28;20301;-52
2024/01/10 06:43:16;;;;;;;6.80;6.30;;;;;;;-4.79;74.28;99466.38;4121647;28;20713;-53
2024/01/10 06:45:19;;;;;;;7.80;7.10;;;;;;;-4.88;74.65;99480.50;4126949;28;20233;-54
2024/01/10 06:47:21;;;;;;;10.80;7.50;;;;;;;-4.72;74.19;99484.41;4120354;28;20991;-54
2024/01/10 06:49:23;;;;;;;7.80;7.30;;;;;;;-4.92;74.03;99481.72;4119615;28;20265;-50
2024/01/10 06:51:26;;;;;;;7.13;6.60;;;;;;;-4.95;75.13;99479.31;4116921;28;20250;-52
2024/01/10 06:53:28;;;;;;;7.90;7.30;;;;;;;-4.85;74.85;99482.91;4116821;28;20238;-52
2024/01/10 06:55:30;;;;;;;7.93;7.37;;;;;;;-5.04;75.08;99482.75;4118072;28;20222;-51
2024/01/10 06:57:32;;;;;;;10.83;6.10;;;;;;;-5.03;75.18;99487.97;4118270;28;20235;-52
2024/01/10 06:59:33;;;;;;;12.40;8.13;;;;;;;-4.93;75.14;99488.88;4122413;28;20487;-52
2024/01/10 07:01:35;;;;;;;8.50;7.90;;;;;;;-4.92;74.52;99481.72;4119587;28;20230;-51
2024/01/10 07:03:37;;;;;;;8.13;7.43;;;;;;;-4.95;74.76;99481.97;4121358;28;20226;-51
2024/01/10 07:05:39;;;;;;;9.40;6.03;;;;;;;-4.84;74.92;99481.91;4119835;28;20213;-51
2024/01/10 07:07:41;;;;;;;7.17;6.57;;;;;;;-4.73;74.91;99487.19;4123113;28;20370;-52
2024/01/10 07:09:43;;;;;;;8.57;6.07;;;;;;;-5.09;75.33;99484.97;4124342;28;20249;-52
2024/01/10 07:11:48;;;;;;;7.03;6.33;;;;;;;-5.15;76.27;99483.66;4116806;28;20340;-51
2024/01/10 07:13:50;;;;;;;7.57;6.87;;;;;;;-4.99;76.28;99491.22;4126286;28;20614;-52
2024/01/10 07:15:52;;;;;;;9.33;8.40;;;;;;;-5.04;75.85;99483.63;4118856;28;20724;-52
2024/01/10 07:17:54;;;;;;;8.47;6.93;;;;;;;-5.09;76.89;99496.50;4124880;28;20232;-53
2024/01/10 07:19:56;;;;;;;7.90;6.30;;;;;;;-4.97;76.47;99498.13;4119519;28;20585;-51
2024/01/10 07:21:58;;;;;;;12.47;7.50;;;;;;;-5.06;77.14;99500.72;4120006;28;20230;-52
2024/01/10 07:24:00;;;;;;;9.97;7.73;;;;;;;-5.06;76.70;99495.41;4104917;28;20231;-52
2024/01/10 07:26:02;;;;;;;6.83;6.37;;;;;;;-4.93;77.08;99501.38;4124092;28;20216;-52
2024/01/10 07:28:04;;;;;;;9.90;8.90;;;;;;;-4.97;76.82;99505.28;4125650;28;20348;-51
2024/01/10 07:30:13;;;;;;;6.97;6.50;;;;;;;-5.03;76.78;99500.47;4123412;28;20221;-52
2024/01/10 07:32:15;;;;;;;12.10;8.77;;;;;;;-5.11;77.08;99502.94;4123470;28;20340;-52
2024/01/10 07:34:17;;;;;;;12.60;8.47;;;;;;;-5.04;77.24;99514.78;4119563;28;20210;-52
2024/01/10 07:36:19;;;;;;;9.63;8.97;;;;;;;-4.98;77.49;99511.59;4121442;28;20239;-53
2024/01/10 07:38:21;;;;;;;7.23;6.77;;;;;;;-4.87;77.31;99506.22;4124952;28;20212;-52
2024/01/10 07:40:23;;;;;;;6.83;6.43;;;;;;;-4.85;77.14;99505.13;4127079;28;20228;-51
2024/01/10 07:42:24;;;;;;;7.83;7.40;;;;;;;-4.88;77.12;99509.84;4129983;28;20206;-52
2024/01/10 07:44:26;;;;;;;7.97;7.20;;;;;;;-4.89;76.78;99508.16;4124703;28;20238;-52
2024/01/10 07:46:28;;;;;;;7.57;6.93;;;;;;;-4.85;77.39;99512.25;4123010;28;20215;-52
2024/01/10 07:48:31;;;;;;;7.53;5.77;;;;;;;-4.94;77.21;99516.53;4137138;28;20216;-53
2024/01/10 07:50:33;;;;;;;11.30;9.27;;;;;;;-4.84;77.26;99521.94;4122853;28;20210;-53
2024/01/10 07:52:35;;;;;;;5.77;5.30;;;;;;;-4.80;77.62;99526.06;4128825;28;20213;-52
2024/01/10 07:54:37;;;;;;;9.90;7.43;;;;;;;-4.64;77.58;99527.31;4121019;28;20215;-51
2024/01/10 07:56:39;;;;;;;7.37;6.97;;;;;;;-4.64;77.07;99523.78;4125842;28;20213;-53
2024/01/10 07:58:41;;;;;;;5.70;5.27;;;;;;;-4.62;77.04;99522.66;4124497;28;20210;-52
2024/01/10 08:00:43;;;;;;;7.47;7.03;;;;;;;-4.81;76.17;99521.72;4124015;28;20230;-52
2024/01/10 08:02:45;;;;;;;6.70;6.23;;;;;;;-4.75;76.35;99526.50;4123947;28;20293;-52
2024/01/10 08:04:46;;;;;;;7.27;6.80;;;;;;;-4.75;76.36;99521.16;4123771;28;20234;-53
2024/01/10 08:06:48;;;;;;;7.40;7.00;;;;;;;-4.95;76.52;99519.31;4125701;28;20270;-52
2024/01/10 08:08:50;;;;;;;7.43;6.93;;;;;;;-4.94;76.64;99516.53;4122923;28;20202;-53
2024/01/10 08:10:52;;;;;;;7.17;6.53;;;;;;;-4.99;77.53;99524.06;4127276;28;20285;-52
2024/01/10 08:12:54;;;;;;;10.80;8.37;;;;;;;-4.93;77.61;99523.56;4128038;28;20610;-52
2024/01/10 08:14:56;;;;;;;9.17;8.07;;;;;;;-4.93;77.21;99523.56;4120505;28;20214;-53
2024/01/10 08:16:58;;;;;;;7.27;6.53;;;;;;;-4.87;77.22;99527.56;4127766;28;20206;-51
2024/01/10 08:19:00;;;;;;;17.37;7.00;;;;;;;-4.82;77.36;99528.00;4123743;28;20238;-52
2024/01/10 08:21:04;;;;;;;23.43;8.70;;;;;;;-4.79;77.50;99530.41;4122410;28;20666;-52
2024/01/10 08:23:06;;;;;;;11.50;7.00;;;;;;;-4.78;77.08;99537.44;4122696;28;20217;-52
2024/01/10 08:25:07;;;;;;;7.30;6.70;;;;;;;-4.68;77.25;99533.88;4128624;28;20229;-51
2024/01/10 08:27:09;;;;;;;13.77;8.57;;;;;;;-4.76;76.74;99535.47;4123194;28;20297;-52
2024/01/10 08:29:11;;;;;;;6.73;6.33;;;;;;;-4.80;77.36;99539.41;4128187;28;20216;-50
2024/01/10 08:31:16;;;;;;;7.03;6.53;;;;;;;-4.80;76.56;99534.06;4127757;28;20328;-52
2024/01/10 08:33:18;;;;;;;9.73;8.97;;;;;;;-4.85;76.47;99530.94;4129268;28;20297;-52
2024/01/10 08:35:20;;;;;;;14.57;9.47;;;;;;;-4.80;76.43;99528.72;4128728;28;20210;-52
2024/01/10 08:37:23;;;;;;;8.83;6.77;;;;;;;-4.84;76.74;99529.97;4121359;28;20211;-52
2024/01/10 08:39:28;;;;;;;18.37;8.20;;;;;;;-4.81;77.29;99533.22;4122272;28;20225;-52
2024/01/10 08:41:30;;;;;;;10.63;5.97;;;;;;;-4.69;76.10;99539.31;4120348;28;20254;-55
2024/01/10 08:43:32;;;;;;;8.60;7.97;;;;;;;-4.67;75.84;99534.72;4122002;28;20214;-52
2024/01/10 08:45:34;;;;;;;12.10;8.10;;;;;;;-4.62;76.03;99537.81;4128440;28;20229;-52
2024/01/10 08:47:36;;;;;;;6.87;6.33;;;;;;;-4.66;75.98;99531.06;4129114;28;20209;-52
2024/01/10 08:49:38;;;;;;;9.23;8.33;;;;;;;-4.65;76.39;99536.28;4121725;28;20695;-51
2024/01/10 08:51:40;;;;;;;10.40;6.40;;;;;;;-4.55;75.46;99531.00;4121620;28;20241;-52
2024/01/10 08:53:43;;;;;;;6.23;5.80;;;;;;;-4.54;75.38;99540.72;4117779;28;20207;-51
2024/01/10 08:55:47;;;;;;;7.43;6.87;;;;;;;-4.51;76.31;99535.09;4124079;28;20218;-53
2024/01/10 08:57:48;;;;;;;7.83;6.93;;;;;;;-4.41;75.82;99525.34;4121781;28;20242;-52
2024/01/10 08:59:50;;;;;;;7.03;6.53;;;;;;;-4.38;74.82;99528.59;4122743;28;20755;-51
2024/01/10 09:01:52;;;;;;;11.47;9.57;;;;;;;-4.29;74.49;99535.81;4108360;28;20639;-51
2024/01/10 09:03:54;;;;;;;6.43;5.93;;;;;;;-4.29;74.43;99532.28;4120733;28;21081;-52
2024/01/10 09:05:56;;;;;;;9.07;8.43;;;;;;;-4.21;73.30;99538.66;4128019;28;20210;-52
2024/01/10 09:08:09;;;;;;;22.83;7.70;;;;;;;-4.15;74.05;99537.28;4127524;28;20225;-53
2024/01/10 09:10:11;;;;;;;8.37;7.57;;;;;;;-4.09;72.81;99542.06;4127978;28;20210;-52
2024/01/10 09:12:12;;;;;;;8.83;8.23;;;;;;;-3.95;72.64;99544.41;4121748;28;20227;-51
2024/01/10 09:14:14;;;;;;;6.90;6.33;;;;;;;-3.84;71.60;99547.84;4127158;28;20202;-52
2024/01/10 09:16:18;;;;;;;8.07;7.47;;;;;;;-3.80;70.96;99543.88;4121765;28;20643;-53
2024/01/10 09:18:20;;;;;;;13.47;7.87;;;;;;;-3.69;71.03;99537.59;4125876;28;20218;-51
2024/01/10 09:20:22;;;;;;;8.17;7.57;;;;;;;-3.65;70.83;99547.03;4120411;28;20242;-51
2024/01/10 09:22:23;;;;;;;7.27;6.40;;;;;;;-3.41;70.40;99544.88;4126672;28;20213;-53
2024/01/10 09:24:28;;;;;;;8.07;7.47;;;;;;;-3.21;70.00;99546.59;4128242;28;20237;-51
2024/01/10 09:26:31;;;;;;;9.37;6.80;;;;;;;-3.19;69.26;99544.63;4124797;28;20614;-52
2024/01/10 09:28:32;;;;;;;7.67;6.37;;;;;;;-3.15;69.25;99552.22;4118342;28;20289;-52
2024/01/10 09:30:34;;;;;;;9.43;8.63;;;;;;;-2.94;69.08;99550.25;4118114;28;20212;-52
2024/01/10 09:32:39;;;;;;;12.13;7.33;;;;;;;-2.77;69.06;99546.03;4123999;28;20567;-53